Coronado, CA (92118)

6:01 PM PDT on July 24, 2016 (GMT -0700)
Coronado | | Change Station

Elev 33 ft 32.70 °N, 117.18 °W | Updated 4 minutes ago

Mostly Cloudy
Mostly Cloudy
83.1 °F
Feels Like 87 °F
N
5.3
Wind Variable Wind from West

Today
High -- | Low -- °F
--% Chance of Precip.
Yesterday
High -- | Low -- °F
Precip. -- in
Pressure 29.88 in
Visibility 9.0 miles
Clouds Few 4000 ft
Scattered Clouds 15000 ft
Mostly Cloudy 25000 ft
Heat Index 87 °F
Dew Point 69 °F
Humidity 62%
Rainfall in
Snow Depth Not available.
5:57 AM 7:52 PM
Waning Gibbous, 71% visible
METAR KNZY 250052Z 20006KT 9SM FEW040 SCT150 BKN250 22/19 A2988 RMK AO2 SLP117 T02170189 $
Pressure 29.88 in
Visibility 9.0 miles
Clouds Few 4000 ft
Scattered Clouds 15000 ft
Mostly Cloudy 25000 ft
Heat Index 87 °F
Dew Point 69 °F
Humidity 62%
Rainfall in
Snow Depth Not available.
5:57 AM 7:52 PM
Waning Gibbous, 71% visible
METAR KNZY 250052Z 20006KT 9SM FEW040 SCT150 BKN250 22/19 A2988 RMK AO2 SLP117 T02170189 $

10-Day Weather Forecast

Almanac

Astronomy

Jul. 24, 2016 Rise Set
Actual Time
Civil Twilight
Nautical Twilight
Astronomical Twilight
Moon
Length of Visible Light
Length of Day
Tomorrow will be .
, % of the Moon is Illuminated

Today's Extremes

State Highs State Lows

Community

WunderPhotos

Upload Photos

1,927,224 photos uploaded!

WunderBlog® & News

Nearby

Air Quality

  Air Quality AQ Index Pollutant
Not available.

Snow Depth

Station Depth Elevation

Earthquake Activity

City Distance Mag. Time & Date
Minimum magnitude displayed is 2.5.

Coastal Water Temperatures

Place Temperature

Stations

Nearby Weather Stations

Station Location Temp. Windchill Dew Point Humidity Wind Precip. Elev Updated Type
                   

Watches & Warnings

There are currently no watches in effect.